createdAt,value
2023-05-07T00:01:22.515Z,15.40
2023-05-07T00:03:49.705Z,15.38
2023-05-07T00:06:16.804Z,15.41
2023-05-07T00:08:43.874Z,15.45
2023-05-07T00:11:10.882Z,15.41
2023-05-07T00:13:37.694Z,15.38
2023-05-07T00:16:05.512Z,15.50
2023-05-07T00:18:32.720Z,15.45
2023-05-07T00:21:01.856Z,15.47
2023-05-07T00:23:28.772Z,15.43
2023-05-07T00:25:57.371Z,15.46
2023-05-07T00:28:26.649Z,15.38
2023-05-07T00:30:54.096Z,15.45
2023-05-07T00:33:21.962Z,15.34
2023-05-07T00:35:49.428Z,15.42
2023-05-07T00:38:16.711Z,15.29
2023-05-07T00:40:43.697Z,15.41
2023-05-07T00:43:10.622Z,15.45
2023-05-07T00:45:37.467Z,15.43
2023-05-07T00:48:06.836Z,15.37
2023-05-07T00:50:34.257Z,15.38
2023-05-07T00:53:01.676Z,15.41
2023-05-07T00:55:28.694Z,15.40
2023-05-07T00:57:55.839Z,15.33
2023-05-07T01:00:22.668Z,15.43
2023-05-07T01:02:49.738Z,15.37
2023-05-07T01:05:23.878Z,15.41
2023-05-07T01:07:53.961Z,15.23
2023-05-07T01:10:20.860Z,15.36
2023-05-07T01:12:49.706Z,15.34
2023-05-07T01:15:17.105Z,15.32
2023-05-07T01:17:45.679Z,15.25
2023-05-07T01:20:13.132Z,15.28
2023-05-07T01:22:40.950Z,15.24
2023-05-07T01:25:09.243Z,15.21
2023-05-07T01:27:38.097Z,15.17
2023-05-07T01:30:06.376Z,15.21
2023-05-07T01:32:44.254Z,15.26
2023-05-07T01:35:15.021Z,15.15
2023-05-07T01:37:42.679Z,15.23
2023-05-07T01:40:10.761Z,15.20
2023-05-07T01:42:38.261Z,15.21
2023-05-07T01:45:05.557Z,15.20
2023-05-07T01:47:33.346Z,15.18
2023-05-07T01:50:00.456Z,15.19
2023-05-07T01:52:28.948Z,15.16
2023-05-07T01:54:55.852Z,15.00
2023-05-07T01:57:22.758Z,15.10
2023-05-07T01:59:51.962Z,15.05
2023-05-07T02:02:18.834Z,15.10
2023-05-07T02:04:45.718Z,15.01
2023-05-07T02:07:12.371Z,15.05
2023-05-07T02:09:39.319Z,15.05
2023-05-07T02:12:06.605Z,15.08
2023-05-07T02:14:38.097Z,15.10
2023-05-07T02:17:10.834Z,15.04
2023-05-07T02:19:42.448Z,15.07
2023-05-07T02:22:11.064Z,14.96
2023-05-07T02:24:37.990Z,15.01
2023-05-07T02:27:07.232Z,15.03
2023-05-07T02:29:34.173Z,14.77
2023-05-07T02:32:01.070Z,14.83
2023-05-07T02:34:28.251Z,14.99
2023-05-07T02:36:57.761Z,14.99
2023-05-07T02:39:24.545Z,14.99
2023-05-07T02:41:51.117Z,14.82
2023-05-07T02:44:17.964Z,14.94
2023-05-07T02:46:44.911Z,14.92
2023-05-07T02:49:14.321Z,14.96
2023-05-07T02:51:41.174Z,14.80
2023-05-07T02:54:08.160Z,14.98
2023-05-07T02:56:35.064Z,14.99
2023-05-07T02:59:01.878Z,14.93
2023-05-07T03:01:28.799Z,14.92
2023-05-07T03:03:55.579Z,15.02
2023-05-07T03:06:22.712Z,14.79
2023-05-07T03:08:51.877Z,14.97
2023-05-07T03:11:18.943Z,14.94
2023-05-07T03:13:50.284Z,14.95
2023-05-07T03:16:17.444Z,15.00
2023-05-07T03:18:44.567Z,14.98
2023-05-07T03:21:14.005Z,14.96
2023-05-07T03:23:45.555Z,14.96
2023-05-07T03:26:14.555Z,14.85
2023-05-07T03:28:41.477Z,14.82
2023-05-07T03:31:10.729Z,14.94
2023-05-07T03:33:51.398Z,14.88
2023-05-07T03:36:18.345Z,14.94
2023-05-07T03:38:45.149Z,14.86
2023-05-07T03:41:12.119Z,14.86
2023-05-07T03:43:38.999Z,14.90
2023-05-07T03:46:05.968Z,14.74
2023-05-07T03:48:32.842Z,14.82
2023-05-07T03:51:00.426Z,14.86
2023-05-07T03:53:27.471Z,14.19
2023-05-07T03:55:54.289Z,14.80
2023-05-07T03:58:21.306Z,14.77
2023-05-07T04:00:51.007Z,14.80
2023-05-07T04:03:18.515Z,14.80
2023-05-07T04:05:48.157Z,14.85
2023-05-07T04:08:17.392Z,14.19
2023-05-07T04:10:44.405Z,14.78
2023-05-07T04:13:11.512Z,14.76
2023-05-07T04:15:38.371Z,14.68
2023-05-07T04:18:08.570Z,14.66
2023-05-07T04:20:37.965Z,14.72
2023-05-07T04:23:05.076Z,14.69
2023-05-07T04:25:32.653Z,14.66
2023-05-07T04:27:59.915Z,14.62
2023-05-07T04:30:27.506Z,14.63
2023-05-07T04:32:57.436Z,14.72
2023-05-07T04:35:24.504Z,14.73
2023-05-07T04:37:53.554Z,14.65
2023-05-07T04:40:21.158Z,14.74
2023-05-07T04:42:51.272Z,14.74
2023-05-07T04:45:18.960Z,14.76
2023-05-07T04:47:48.268Z,14.75
2023-05-07T04:50:18.945Z,14.81
2023-05-07T04:52:46.470Z,14.73
2023-05-07T04:55:16.046Z,14.65
2023-05-07T04:57:49.219Z,14.90
2023-05-07T05:00:36.201Z,14.93
2023-05-07T05:03:03.177Z,14.62
2023-05-07T05:05:32.337Z,14.95
2023-05-07T05:08:01.294Z,14.98
2023-05-07T05:10:28.109Z,14.90
2023-05-07T05:12:55.656Z,14.81
2023-05-07T05:15:34.163Z,15.06
2023-05-07T05:18:03.794Z,14.96
2023-05-07T05:20:33.440Z,15.08
2023-05-07T05:23:00.484Z,14.98
2023-05-07T05:25:27.213Z,15.04
2023-05-07T05:27:54.094Z,15.11
2023-05-07T05:30:22.494Z,15.12
2023-05-07T05:32:50.048Z,15.13
2023-05-07T05:35:16.923Z,15.06
2023-05-07T05:37:46.809Z,15.10
2023-05-07T05:40:18.384Z,15.11
2023-05-07T05:42:45.336Z,15.15
2023-05-07T05:45:12.323Z,15.18
2023-05-07T05:47:40.144Z,15.16
2023-05-07T05:50:26.093Z,15.18
2023-05-07T05:52:55.408Z,15.18
2023-05-07T05:55:23.279Z,15.12
2023-05-07T05:57:52.525Z,15.20
2023-05-07T06:00:19.903Z,15.12
2023-05-07T06:02:47.030Z,15.17
2023-05-07T06:05:13.966Z,15.13
2023-05-07T06:07:40.733Z,15.20
2023-05-07T06:10:08.158Z,15.22
2023-05-07T06:12:35.207Z,15.33
2023-05-07T06:15:02.690Z,15.43
2023-05-07T06:17:29.413Z,15.51
2023-05-07T06:19:56.210Z,15.44
2023-05-07T06:22:23.086Z,15.53
2023-05-07T06:24:49.727Z,15.64
2023-05-07T06:27:16.486Z,15.69
2023-05-07T06:30:14.164Z,15.76
2023-05-07T06:32:38.041Z,15.78
2023-05-07T06:35:05.387Z,15.62
2023-05-07T06:37:32.164Z,15.74
2023-05-07T06:40:01.090Z,15.88
2023-05-07T06:42:30.447Z,15.95
2023-05-07T06:44:57.179Z,15.90
2023-05-07T06:47:24.409Z,16.01
2023-05-07T06:49:53.333Z,16.06
2023-05-07T06:52:20.256Z,16.11
2023-05-07T06:54:49.475Z,16.11
2023-05-07T06:57:16.091Z,16.16
2023-05-07T06:59:42.847Z,16.20
2023-05-07T07:02:09.790Z,16.12
2023-05-07T07:04:39.807Z,16.27
2023-05-07T07:07:06.866Z,16.33
2023-05-07T07:09:35.947Z,16.33
2023-05-07T07:12:02.785Z,16.51
2023-05-07T07:14:29.447Z,16.62
2023-05-07T07:16:56.404Z,16.63
2023-05-07T07:19:23.148Z,16.71
2023-05-07T07:21:51.110Z,16.84
2023-05-07T07:24:22.077Z,16.96
2023-05-07T07:26:48.972Z,17.10
2023-05-07T07:29:15.692Z,17.28
2023-05-07T07:31:42.277Z,17.48
2023-05-07T07:34:08.999Z,17.41
2023-05-07T07:36:45.661Z,17.51
2023-05-07T07:39:16.072Z,17.46
2023-05-07T07:41:45.713Z,17.51
2023-05-07T07:44:16.022Z,17.64
2023-05-07T07:46:43.520Z,17.97
2023-05-07T07:49:10.382Z,18.27
2023-05-07T07:51:38.480Z,18.45
2023-05-07T07:54:05.434Z,18.48
2023-05-07T07:56:34.675Z,18.41
2023-05-07T07:59:02.027Z,18.35
2023-05-07T08:01:31.092Z,18.29
2023-05-07T08:04:00.014Z,18.19
2023-05-07T08:06:29.477Z,18.13
2023-05-07T08:08:56.321Z,18.18
2023-05-07T08:11:23.053Z,17.96
2023-05-07T08:13:50.030Z,18.36
2023-05-07T08:16:16.699Z,18.51
2023-05-07T08:18:46.035Z,18.62
2023-05-07T08:21:12.705Z,19.06
2023-05-07T08:23:41.787Z,19.38
2023-05-07T08:26:10.054Z,19.90
2023-05-07T08:28:36.762Z,20.12
2023-05-07T08:31:03.733Z,20.38
2023-05-07T08:33:32.559Z,20.93
2023-05-07T08:35:59.568Z,21.47
2023-05-07T08:38:28.618Z,21.78
2023-05-07T08:40:57.779Z,22.08
2023-05-07T08:43:28.325Z,21.83
2023-05-07T08:46:02.645Z,21.55
2023-05-07T08:48:31.200Z,21.54
2023-05-07T08:50:59.850Z,21.56
2023-05-07T08:53:26.792Z,21.84
2023-05-07T08:55:54.543Z,21.98
2023-05-07T08:58:21.332Z,22.54
2023-05-07T09:00:48.565Z,23.21
2023-05-07T09:03:15.496Z,23.17
2023-05-07T09:05:42.399Z,23.25
2023-05-07T09:08:09.334Z,23.07
2023-05-07T09:10:36.028Z,22.99
2023-05-07T09:13:04.852Z,22.80
2023-05-07T09:15:31.812Z,22.49
2023-05-07T09:18:04.967Z,22.41
2023-05-07T09:20:33.009Z,22.17
2023-05-07T09:22:59.803Z,21.83
2023-05-07T09:25:32.559Z,21.73
2023-05-07T09:28:00.083Z,21.50
2023-05-07T09:30:31.344Z,21.53
2023-05-07T09:33:00.809Z,21.51
2023-05-07T09:35:28.727Z,21.34
2023-05-07T09:37:58.065Z,21.24
2023-05-07T09:40:30.629Z,21.11
2023-05-07T09:42:57.495Z,20.75
2023-05-07T09:45:26.515Z,20.78
2023-05-07T09:47:58.881Z,20.73
2023-05-07T09:50:33.717Z,20.99
2023-05-07T09:53:01.021Z,20.94
2023-05-07T09:55:28.704Z,20.89
2023-05-07T10:00:38.779Z,20.79
2023-05-07T10:03:16.813Z,20.99
2023-05-07T10:05:45.685Z,21.01
2023-05-07T10:08:17.891Z,20.81
2023-05-07T10:10:55.939Z,20.84
2023-05-07T10:13:23.267Z,20.56
2023-05-07T10:15:54.374Z,20.76
2023-05-07T10:18:30.639Z,20.97
2023-05-07T10:21:03.833Z,20.89
2023-05-07T10:23:42.789Z,20.94
2023-05-07T10:26:10.555Z,20.89
2023-05-07T10:28:47.908Z,20.80
2023-05-07T10:31:51.362Z,20.67
2023-05-07T10:34:33.516Z,20.53
2023-05-07T10:37:01.038Z,20.70
2023-05-07T10:39:28.572Z,20.68
2023-05-07T10:41:55.346Z,20.62
2023-05-07T10:44:34.354Z,20.60
2023-05-07T10:47:10.376Z,20.64
2023-05-07T10:49:43.937Z,20.64
2023-05-07T10:52:27.888Z,20.63
2023-05-07T10:55:26.159Z,20.70
2023-05-07T10:57:52.976Z,20.69
2023-05-07T11:00:38.944Z,20.85
2023-05-07T11:03:08.112Z,20.88
2023-05-07T11:05:40.242Z,20.92
2023-05-07T11:08:07.393Z,21.06
2023-05-07T11:10:54.458Z,21.13
2023-05-07T11:13:44.165Z,21.14
2023-05-07T11:16:25.963Z,21.10
2023-05-07T11:18:57.409Z,21.08
2023-05-07T11:21:36.125Z,21.15
2023-05-07T11:24:06.690Z,21.05
2023-05-07T11:26:48.717Z,20.97
2023-05-07T11:29:23.866Z,20.95
2023-05-07T11:32:00.982Z,21.05
2023-05-07T11:34:28.711Z,21.12
2023-05-07T11:36:56.827Z,21.15
2023-05-07T11:39:28.492Z,21.15
2023-05-07T11:41:55.332Z,21.32
2023-05-07T11:44:21.948Z,21.33
2023-05-07T11:46:49.680Z,21.45
2023-05-07T11:49:16.866Z,21.47
2023-05-07T11:51:44.257Z,21.68
2023-05-07T11:54:12.474Z,21.88
2023-05-07T11:56:40.060Z,22.00
2023-05-07T11:59:07.449Z,22.12
2023-05-07T12:01:37.233Z,22.21
2023-05-07T12:04:06.439Z,22.31
2023-05-07T12:06:40.177Z,22.38
2023-05-07T12:09:12.597Z,22.48
2023-05-07T12:11:40.934Z,22.75
2023-05-07T12:14:09.486Z,22.81
2023-05-07T12:16:38.300Z,22.88
2023-05-07T12:19:10.615Z,22.99
2023-05-07T12:21:37.395Z,22.93
2023-05-07T12:24:04.459Z,22.98
2023-05-07T12:26:31.311Z,23.06
2023-05-07T12:29:04.644Z,23.00
2023-05-07T12:31:34.822Z,22.96
2023-05-07T12:34:07.203Z,23.13
2023-05-07T12:36:42.561Z,23.48
2023-05-07T12:39:09.870Z,23.56
2023-05-07T12:41:57.648Z,23.48
2023-05-07T12:44:41.381Z,23.47
2023-05-07T12:47:08.392Z,23.54
2023-05-07T12:49:38.851Z,23.44
2023-05-07T12:52:06.744Z,23.53
2023-05-07T12:54:34.997Z,23.72
2023-05-07T12:57:07.592Z,23.55
2023-05-07T12:59:44.954Z,23.49
2023-05-07T13:02:14.088Z,23.20
2023-05-07T13:04:40.830Z,23.12
2023-05-07T13:07:07.532Z,23.27
2023-05-07T13:09:34.491Z,23.25
2023-05-07T13:12:04.277Z,23.22
2023-05-07T13:14:33.407Z,23.09
2023-05-07T13:17:00.077Z,23.09
2023-05-07T13:19:28.046Z,23.10
2023-05-07T13:21:58.401Z,23.12
2023-05-07T13:24:25.284Z,23.14
2023-05-07T13:26:51.892Z,22.94
2023-05-07T13:29:18.613Z,23.01
2023-05-07T13:31:45.477Z,22.98
2023-05-07T13:34:12.600Z,22.89
2023-05-07T13:36:43.027Z,22.72
2023-05-07T13:39:10.174Z,22.64
2023-05-07T13:41:36.833Z,22.64
2023-05-07T13:44:04.789Z,22.60
2023-05-07T13:46:31.868Z,22.56
2023-05-07T13:48:58.655Z,22.55
2023-05-07T13:51:25.439Z,22.35
2023-05-07T13:53:53.586Z,22.17
2023-05-07T13:56:21.431Z,22.08
2023-05-07T13:58:58.977Z,21.83
2023-05-07T14:01:31.431Z,21.63
2023-05-07T14:04:04.077Z,21.55
2023-05-07T14:06:30.945Z,21.35
2023-05-07T14:08:59.205Z,21.18
2023-05-07T14:11:25.977Z,21.29
2023-05-07T14:13:54.818Z,21.15
2023-05-07T14:16:21.648Z,20.72
2023-05-07T14:18:48.786Z,20.52
2023-05-07T14:21:19.173Z,20.33
2023-05-07T14:23:45.831Z,20.07
2023-05-07T14:26:12.695Z,20.06
2023-05-07T14:28:40.754Z,19.91
2023-05-07T14:31:12.358Z,19.82
2023-05-07T14:33:41.763Z,19.61
2023-05-07T14:36:08.752Z,19.42
2023-05-07T14:38:35.705Z,19.78
2023-05-07T14:41:02.649Z,19.52
2023-05-07T14:43:29.749Z,19.25
2023-05-07T14:46:03.510Z,19.04
2023-05-07T14:48:30.279Z,18.82
2023-05-07T14:51:35.838Z,18.66
2023-05-07T14:54:03.028Z,18.48
2023-05-07T14:56:30.142Z,18.49
2023-05-07T14:58:59.257Z,18.48
2023-05-07T15:01:29.471Z,18.39
2023-05-07T15:03:56.497Z,18.32
2023-05-07T15:06:27.450Z,18.27
2023-05-07T15:08:54.228Z,18.13
2023-05-07T15:11:21.023Z,18.06
2023-05-07T15:13:49.833Z,18.12
2023-05-07T15:16:17.222Z,18.21
2023-05-07T15:18:46.810Z,18.20
2023-05-07T15:21:14.117Z,18.19
2023-05-07T15:23:42.774Z,18.14
2023-05-07T15:26:09.860Z,18.23
2023-05-07T15:28:40.419Z,18.32
2023-05-07T15:31:08.048Z,18.40
2023-05-07T15:33:38.091Z,18.49
2023-05-07T15:36:10.547Z,18.54
2023-05-07T15:38:37.418Z,18.61
2023-05-07T15:41:04.652Z,18.72
2023-05-07T15:43:31.458Z,18.81
2023-05-07T15:46:01.193Z,18.88
2023-05-07T15:48:28.466Z,18.97
2023-05-07T15:50:57.484Z,19.09
2023-05-07T15:53:25.900Z,19.19
2023-05-07T15:55:52.556Z,19.23
2023-05-07T15:58:21.274Z,19.13
2023-05-07T16:00:48.124Z,19.19
2023-05-07T16:03:15.108Z,19.05
2023-05-07T16:05:45.153Z,19.01
2023-05-07T16:08:11.894Z,18.87
2023-05-07T16:10:41.267Z,18.80
2023-05-07T16:13:10.552Z,18.84
2023-05-07T16:15:39.351Z,18.75
2023-05-07T16:18:06.114Z,18.76
2023-05-07T16:20:37.543Z,18.74
2023-05-07T16:23:04.464Z,18.69
2023-05-07T16:25:31.840Z,18.67
2023-05-07T16:27:58.449Z,18.73
2023-05-07T16:30:25.479Z,18.80
2023-05-07T16:32:54.689Z,18.72
2023-05-07T16:35:21.650Z,18.73
2023-05-07T16:37:48.327Z,18.73
2023-05-07T16:40:15.228Z,18.67
2023-05-07T16:42:44.897Z,18.60
2023-05-07T16:45:12.035Z,18.59
2023-05-07T16:47:38.880Z,18.53
2023-05-07T16:50:06.425Z,18.54
2023-05-07T16:52:33.235Z,18.61
2023-05-07T16:55:02.198Z,18.54
2023-05-07T16:57:34.359Z,18.47
2023-05-07T17:00:01.440Z,18.52
2023-05-07T17:02:30.334Z,18.45
2023-05-07T17:04:57.015Z,18.31
2023-05-07T17:07:26.842Z,18.37
2023-05-07T17:09:56.416Z,18.40
2023-05-07T17:12:23.102Z,18.42
2023-05-07T17:14:49.877Z,18.43
2023-05-07T17:17:16.604Z,18.32
2023-05-07T17:19:44.495Z,18.31
2023-05-07T17:22:11.442Z,18.24
2023-05-07T17:24:59.068Z,18.24
2023-05-07T17:27:25.854Z,18.14
2023-05-07T17:29:55.214Z,18.13
2023-05-07T17:32:24.596Z,18.09
2023-05-07T17:35:03.140Z,17.99
2023-05-07T17:37:30.118Z,17.90
2023-05-07T17:39:57.426Z,17.98
2023-05-07T17:42:34.930Z,17.94
2023-05-07T17:45:03.837Z,17.92
2023-05-07T17:47:30.581Z,18.01
2023-05-07T17:49:57.287Z,18.03
2023-05-07T17:52:24.347Z,17.94
2023-05-07T17:54:51.012Z,17.95
2023-05-07T17:57:18.288Z,17.99
2023-05-07T17:59:46.889Z,17.96
2023-05-07T18:02:14.126Z,17.92
2023-05-07T18:04:40.917Z,17.89
2023-05-07T18:07:07.672Z,17.89
2023-05-07T18:09:34.720Z,17.88
2023-05-07T18:12:02.130Z,17.87
2023-05-07T18:14:29.448Z,17.87
2023-05-07T18:16:56.148Z,17.86
2023-05-07T18:19:22.806Z,17.84
2023-05-07T18:21:49.624Z,17.81
2023-05-07T18:24:18.692Z,17.80
2023-05-07T18:26:49.174Z,17.83
2023-05-07T18:29:18.149Z,17.93
2023-05-07T18:31:44.949Z,17.82
2023-05-07T18:34:11.726Z,17.79
2023-05-07T18:36:38.423Z,17.69
2023-05-07T18:39:09.049Z,17.64
2023-05-07T18:41:36.278Z,17.56
2023-05-07T18:44:06.777Z,17.51
2023-05-07T18:46:33.983Z,17.44
2023-05-07T18:49:01.091Z,17.30
2023-05-07T18:51:27.919Z,17.39
2023-05-07T18:53:57.382Z,17.35
2023-05-07T18:56:24.608Z,17.29
2023-05-07T18:58:51.591Z,17.25
2023-05-07T19:01:18.336Z,17.23
2023-05-07T19:03:45.374Z,17.25
2023-05-07T19:06:12.509Z,17.22
2023-05-07T19:08:39.458Z,17.15
2023-05-07T19:11:06.794Z,17.08
2023-05-07T19:13:36.089Z,17.00
2023-05-07T19:16:03.671Z,17.06
2023-05-07T19:18:32.041Z,17.01
2023-05-07T19:21:01.360Z,16.94
2023-05-07T19:23:28.442Z,16.89
2023-05-07T19:25:55.559Z,16.92
2023-05-07T19:28:22.357Z,16.97
2023-05-07T19:30:49.982Z,16.95
2023-05-07T19:33:17.071Z,16.92
2023-05-07T19:35:48.821Z,16.91
2023-05-07T19:38:15.930Z,16.66
2023-05-07T19:40:43.084Z,16.74
2023-05-07T19:43:09.854Z,16.92
2023-05-07T19:45:37.816Z,16.89
2023-05-07T19:48:07.131Z,16.76
2023-05-07T19:50:33.974Z,16.98
2023-05-07T19:53:00.805Z,17.00
2023-05-07T19:55:27.751Z,17.02
2023-05-07T19:57:55.923Z,16.97
2023-05-07T20:00:27.202Z,16.97
2023-05-07T20:02:54.134Z,16.96
2023-05-07T20:05:23.636Z,17.03
2023-05-07T20:07:50.460Z,16.97
2023-05-07T20:10:19.670Z,16.87
2023-05-07T20:12:46.697Z,16.95
2023-05-07T20:15:13.661Z,16.96
2023-05-07T20:17:40.870Z,16.96
2023-05-07T20:20:11.592Z,16.54
2023-05-07T20:22:38.482Z,16.93
2023-05-07T20:25:06.472Z,16.92
2023-05-07T20:27:35.261Z,16.90
2023-05-07T20:30:02.168Z,16.63
2023-05-07T20:32:29.414Z,16.92
2023-05-07T20:34:56.423Z,16.90
2023-05-07T20:37:23.444Z,16.89
2023-05-07T20:39:50.410Z,16.87
2023-05-07T20:42:17.631Z,16.86
2023-05-07T20:44:44.841Z,16.76
2023-05-07T20:47:13.896Z,16.72
2023-05-07T20:49:43.881Z,16.72
2023-05-07T20:52:10.737Z,16.74
2023-05-07T20:54:40.379Z,16.76
2023-05-07T20:57:10.503Z,16.81
2023-05-07T20:59:40.291Z,16.81
2023-05-07T21:02:12.393Z,16.79
2023-05-07T21:04:39.233Z,16.76
2023-05-07T21:07:07.287Z,16.76
2023-05-07T21:09:36.405Z,16.73
2023-05-07T21:12:03.418Z,16.73
2023-05-07T21:14:30.403Z,16.66
2023-05-07T21:17:01.261Z,16.67
2023-05-07T21:19:28.797Z,16.59
2023-05-07T21:21:57.903Z,16.50
2023-05-07T21:24:25.648Z,16.62
2023-05-07T21:27:00.872Z,16.62
2023-05-07T21:29:27.814Z,16.57
2023-05-07T21:31:54.833Z,16.60
2023-05-07T21:34:21.996Z,16.41
2023-05-07T21:36:52.274Z,16.57
2023-05-07T21:39:19.229Z,16.56
2023-05-07T21:41:46.338Z,16.39
2023-05-07T21:44:15.605Z,16.53
2023-05-07T21:46:45.396Z,16.45
2023-05-07T21:49:12.428Z,16.45
2023-05-07T21:51:39.204Z,16.44
2023-05-07T21:54:07.317Z,16.33
2023-05-07T21:56:36.216Z,16.36
2023-05-07T21:59:03.124Z,16.31
2023-05-07T22:01:30.114Z,16.29
2023-05-07T22:03:57.359Z,16.23
2023-05-07T22:06:25.845Z,16.27
2023-05-07T22:08:54.922Z,16.22
2023-05-07T22:11:22.041Z,16.23
2023-05-07T22:13:49.028Z,16.05
2023-05-07T22:16:20.598Z,16.20
2023-05-07T22:18:49.830Z,16.15
2023-05-07T22:21:16.782Z,16.20
2023-05-07T22:23:43.701Z,16.18
2023-05-07T22:26:14.494Z,16.08
2023-05-07T22:28:41.477Z,16.15
2023-05-07T22:31:10.615Z,15.46
2023-05-07T22:33:37.801Z,16.15
2023-05-07T22:36:08.028Z,16.15
2023-05-07T22:38:35.187Z,16.16
2023-05-07T22:41:02.045Z,16.10
2023-05-07T22:43:29.325Z,16.00
2023-05-07T22:46:02.718Z,16.05
2023-05-07T22:48:30.020Z,16.16
2023-05-07T22:50:57.018Z,16.19
2023-05-07T22:53:23.968Z,16.21
2023-05-07T22:55:50.977Z,16.20
2023-05-07T22:58:20.491Z,16.20
2023-05-07T23:00:47.681Z,16.00
2023-05-07T23:03:14.557Z,16.17
2023-05-07T23:05:41.497Z,16.07
2023-05-07T23:08:08.732Z,16.15
2023-05-07T23:10:39.175Z,16.14
2023-05-07T23:13:06.387Z,16.04
2023-05-07T23:15:33.774Z,16.09
2023-05-07T23:18:00.647Z,16.04
2023-05-07T23:20:27.814Z,16.06
2023-05-07T23:22:55.206Z,16.03
2023-05-07T23:25:22.096Z,16.04
2023-05-07T23:27:51.492Z,15.95
2023-05-07T23:30:20.481Z,16.00
2023-05-07T23:32:47.315Z,15.97
2023-05-07T23:35:16.511Z,15.83
2023-05-07T23:37:43.871Z,15.83
2023-05-07T23:40:13.469Z,15.81
2023-05-07T23:42:40.736Z,15.78
2023-05-07T23:45:08.695Z,15.64
2023-05-07T23:47:35.924Z,15.81
2023-05-07T23:50:03.691Z,15.81
2023-05-07T23:52:30.654Z,15.70
2023-05-07T23:54:59.640Z,15.64
2023-05-07T23:57:29.241Z,15.61
2023-05-07T23:59:56.197Z,15.73
